sensor_id;sensor_type;location;lat;lon;timestamp;temperature;humidity
34877;DHT22;21086;44.780;17.194;2022-08-11T00:01:58;19.50;99.90
34877;DHT22;21086;44.780;17.194;2022-08-11T00:04:34;19.50;99.90
34877;DHT22;21086;44.780;17.194;2022-08-11T00:07:03;19.60;99.90
34877;DHT22;21086;44.780;17.194;2022-08-11T00:09:36;19.60;99.90
34877;DHT22;21086;44.780;17.194;2022-08-11T00:12:13;19.60;99.90
34877;DHT22;21086;44.780;17.194;2022-08-11T00:14:41;19.60;99.90
34877;DHT22;21086;44.780;17.194;2022-08-11T00:17:12;19.70;99.90
34877;DHT22;21086;44.780;17.194;2022-08-11T00:19:44;19.60;99.90
34877;DHT22;21086;44.780;17.194;2022-08-11T00:22:32;19.70;99.90
34877;DHT22;21086;44.780;17.194;2022-08-11T00:25:07;19.70;99.90
34877;DHT22;21086;44.780;17.194;2022-08-11T00:27:38;19.70;99.90
34877;DHT22;21086;44.780;17.194;2022-08-11T00:30:10;19.80;99.90
34877;DHT22;21086;44.780;17.194;2022-08-11T00:32:40;19.80;99.90
34877;DHT22;21086;44.780;17.194;2022-08-11T00:35:13;19.80;99.90
34877;DHT22;21086;44.780;17.194;2022-08-11T00:38:02;19.70;99.90
34877;DHT22;21086;44.780;17.194;2022-08-11T00:40:38;19.80;99.90
34877;DHT22;21086;44.780;17.194;2022-08-11T00:48:44;19.70;99.90
34877;DHT22;21086;44.780;17.194;2022-08-11T01:00:10;19.50;99.90
34877;DHT22;21086;44.780;17.194;2022-08-11T01:23:11;19.10;99.90
34877;DHT22;21086;44.780;17.194;2022-08-11T01:35:23;18.90;99.90
34877;DHT22;21086;44.780;17.194;2022-08-11T01:37:55;18.90;99.90
34877;DHT22;21086;44.780;17.194;2022-08-11T01:48:47;18.70;99.90
34877;DHT22;21086;44.780;17.194;2022-08-11T01:51:22;18.60;99.90
34877;DHT22;21086;44.780;17.194;2022-08-11T01:56:45;18.60;99.90
34877;DHT22;21086;44.780;17.194;2022-08-11T01:59:16;18.40;99.90
34877;DHT22;21086;44.780;17.194;2022-08-11T02:05:09;18.20;99.90
34877;DHT22;21086;44.780;17.194;2022-08-11T02:07:57;18.20;99.90
34877;DHT22;21086;44.780;17.194;2022-08-11T02:18:55;18.30;99.90
34877;DHT22;21086;44.780;17.194;2022-08-11T02:21:51;18.30;99.90
34877;DHT22;21086;44.780;17.194;2022-08-11T02:24:59;18.30;99.90
34877;DHT22;21086;44.780;17.194;2022-08-11T02:27:38;18.30;99.90
34877;DHT22;21086;44.780;17.194;2022-08-11T02:30:11;18.30;99.90
34877;DHT22;21086;44.780;17.194;2022-08-11T02:36:03;18.30;99.90
34877;DHT22;21086;44.780;17.194;2022-08-11T02:38:47;18.30;99.90
34877;DHT22;21086;44.780;17.194;2022-08-11T02:41:20;18.30;99.90
34877;DHT22;21086;44.780;17.194;2022-08-11T02:49:50;18.30;99.90
34877;DHT22;21086;44.780;17.194;2022-08-11T02:53:19;18.40;99.90
34877;DHT22;21086;44.780;17.194;2022-08-11T02:58:48;18.40;99.90
34877;DHT22;21086;44.780;17.194;2022-08-11T03:01:49;18.50;99.90
34877;DHT22;21086;44.780;17.194;2022-08-11T03:04:55;18.50;99.90
34877;DHT22;21086;44.780;17.194;2022-08-11T03:13:07;18.50;99.90
34877;DHT22;21086;44.780;17.194;2022-08-11T03:19:21;18.60;99.90
34877;DHT22;21086;44.780;17.194;2022-08-11T03:22:04;18.60;99.90
34877;DHT22;21086;44.780;17.194;2022-08-11T03:25:05;18.70;99.90
34877;DHT22;21086;44.780;17.194;2022-08-11T03:27:52;18.70;99.90
34877;DHT22;21086;44.780;17.194;2022-08-11T03:45:24;18.50;99.90
34877;DHT22;21086;44.780;17.194;2022-08-11T03:48:08;18.30;99.90
34877;DHT22;21086;44.780;17.194;2022-08-11T03:53:48;18.10;99.90
34877;DHT22;21086;44.780;17.194;2022-08-11T04:05:31;17.90;99.90
34877;DHT22;21086;44.780;17.194;2022-08-11T04:08:34;17.90;99.90
34877;DHT22;21086;44.780;17.194;2022-08-11T04:28:54;17.50;99.90
34877;DHT22;21086;44.780;17.194;2022-08-11T04:48:53;17.60;99.90
34877;DHT22;21086;44.780;17.194;2022-08-11T04:59:07;17.70;99.90
34877;DHT22;21086;44.780;17.194;2022-08-11T05:14:19;17.80;99.90
34877;DHT22;21086;44.780;17.194;2022-08-11T05:17:12;17.90;99.90
34877;DHT22;21086;44.780;17.194;2022-08-11T05:19:59;17.90;99.90
34877;DHT22;21086;44.780;17.194;2022-08-11T05:22:49;18.00;99.90
34877;DHT22;21086;44.780;17.194;2022-08-11T05:25:36;18.10;99.90
34877;DHT22;21086;44.780;17.194;2022-08-11T05:29:02;18.10;99.90
34877;DHT22;21086;44.780;17.194;2022-08-11T05:31:56;18.00;99.90
34877;DHT22;21086;44.780;17.194;2022-08-11T05:34:47;18.00;99.90
34877;DHT22;21086;44.780;17.194;2022-08-11T05:40:09;18.10;99.90
34877;DHT22;21086;44.780;17.194;2022-08-11T05:43:04;18.20;99.90
34877;DHT22;21086;44.780;17.194;2022-08-11T05:46:02;18.40;99.90
34877;DHT22;21086;44.780;17.194;2022-08-11T05:48:48;18.70;99.90
34877;DHT22;21086;44.780;17.194;2022-08-11T05:51:38;18.90;99.90
34877;DHT22;21086;44.780;17.194;2022-08-11T05:54:39;19.10;99.90
34877;DHT22;21086;44.780;17.194;2022-08-11T05:57:34;19.40;99.90
34877;DHT22;21086;44.780;17.194;2022-08-11T06:00:18;19.50;99.90
34877;DHT22;21086;44.780;17.194;2022-08-11T06:02:48;19.70;99.90
34877;DHT22;21086;44.780;17.194;2022-08-11T06:05:15;19.90;99.90
34877;DHT22;21086;44.780;17.194;2022-08-11T06:07:46;20.10;99.90
34877;DHT22;21086;44.780;17.194;2022-08-11T06:10:44;20.20;99.90
34877;DHT22;21086;44.780;17.194;2022-08-11T06:13:16;20.30;99.90
34877;DHT22;21086;44.780;17.194;2022-08-11T06:15:48;20.30;99.90
34877;DHT22;21086;44.780;17.194;2022-08-11T06:18:16;20.30;99.90
34877;DHT22;21086;44.780;17.194;2022-08-11T06:20:48;20.40;99.90
34877;DHT22;21086;44.780;17.194;2022-08-11T06:23:17;20.40;99.90
34877;DHT22;21086;44.780;17.194;2022-08-11T06:25:46;20.40;99.90
34877;DHT22;21086;44.780;17.194;2022-08-11T06:28:14;20.40;99.90
34877;DHT22;21086;44.780;17.194;2022-08-11T06:30:46;20.50;99.90
34877;DHT22;21086;44.780;17.194;2022-08-11T06:36:00;20.70;99.90
34877;DHT22;21086;44.780;17.194;2022-08-11T06:41:23;20.80;99.90
34877;DHT22;21086;44.780;17.194;2022-08-11T06:46:46;20.70;99.90
34877;DHT22;21086;44.780;17.194;2022-08-11T06:49:15;20.70;99.90
34877;DHT22;21086;44.780;17.194;2022-08-11T06:52:09;20.60;99.90
34877;DHT22;21086;44.780;17.194;2022-08-11T06:55:04;20.70;99.90
34877;DHT22;21086;44.780;17.194;2022-08-11T06:57:36;20.80;99.90
34877;DHT22;21086;44.780;17.194;2022-08-11T07:00:22;20.90;99.90
34877;DHT22;21086;44.780;17.194;2022-08-11T07:03:07;20.90;99.90
34877;DHT22;21086;44.780;17.194;2022-08-11T07:06:04;21.00;99.90
34877;DHT22;21086;44.780;17.194;2022-08-11T07:14:40;21.10;99.90
34877;DHT22;21086;44.780;17.194;2022-08-11T07:17:43;21.20;99.90
34877;DHT22;21086;44.780;17.194;2022-08-11T07:20:15;21.30;99.90
34877;DHT22;21086;44.780;17.194;2022-08-11T07:23:03;21.30;99.90
34877;DHT22;21086;44.780;17.194;2022-08-11T07:25:53;21.20;99.90
34877;DHT22;21086;44.780;17.194;2022-08-11T07:28:46;21.20;99.90
34877;DHT22;21086;44.780;17.194;2022-08-11T07:31:36;21.20;99.90
34877;DHT22;21086;44.780;17.194;2022-08-11T07:36:53;21.20;99.90
34877;DHT22;21086;44.780;17.194;2022-08-11T07:39:25;21.30;99.90
34877;DHT22;21086;44.780;17.194;2022-08-11T07:41:54;21.40;99.90
34877;DHT22;21086;44.780;17.194;2022-08-11T07:44:24;21.40;99.90
34877;DHT22;21086;44.780;17.194;2022-08-11T07:47:00;21.50;99.90
34877;DHT22;21086;44.780;17.194;2022-08-11T07:49:47;21.60;99.90
34877;DHT22;21086;44.780;17.194;2022-08-11T07:52:35;21.60;99.90
34877;DHT22;21086;44.780;17.194;2022-08-11T07:55:12;21.70;99.90
34877;DHT22;21086;44.780;17.194;2022-08-11T07:57:42;21.80;99.90
34877;DHT22;21086;44.780;17.194;2022-08-11T08:00:54;21.90;99.90
34877;DHT22;21086;44.780;17.194;2022-08-11T08:03:48;21.90;99.90
34877;DHT22;21086;44.780;17.194;2022-08-11T08:06:35;21.90;99.90
34877;DHT22;21086;44.780;17.194;2022-08-11T08:09:21;22.00;99.90
34877;DHT22;21086;44.780;17.194;2022-08-11T08:12:08;22.10;99.90
34877;DHT22;21086;44.780;17.194;2022-08-11T08:14:55;22.20;99.90
34877;DHT22;21086;44.780;17.194;2022-08-11T08:17:42;22.20;99.90
34877;DHT22;21086;44.780;17.194;2022-08-11T08:20:44;22.30;99.90
34877;DHT22;21086;44.780;17.194;2022-08-11T08:23:12;22.50;99.90
34877;DHT22;21086;44.780;17.194;2022-08-11T08:25:41;22.70;99.90
34877;DHT22;21086;44.780;17.194;2022-08-11T08:28:18;22.70;99.90
34877;DHT22;21086;44.780;17.194;2022-08-11T08:30:48;22.80;99.90
34877;DHT22;21086;44.780;17.194;2022-08-11T08:33:27;22.90;99.90
34877;DHT22;21086;44.780;17.194;2022-08-11T08:36:00;23.10;99.90
34877;DHT22;21086;44.780;17.194;2022-08-11T08:38:49;23.20;99.90
34877;DHT22;21086;44.780;17.194;2022-08-11T08:41:21;23.30;99.90
34877;DHT22;21086;44.780;17.194;2022-08-11T08:43:52;23.40;99.90
34877;DHT22;21086;44.780;17.194;2022-08-11T08:46:27;23.40;99.90
34877;DHT22;21086;44.780;17.194;2022-08-11T08:48:59;23.50;99.90
34877;DHT22;21086;44.780;17.194;2022-08-11T08:51:27;23.60;99.90
34877;DHT22;21086;44.780;17.194;2022-08-11T08:54:31;23.70;99.90
34877;DHT22;21086;44.780;17.194;2022-08-11T08:57:00;24.60;99.90
34877;DHT22;21086;44.780;17.194;2022-08-11T08:59:32;23.80;99.90
34877;DHT22;21086;44.780;17.194;2022-08-11T09:02:23;23.90;99.90
34877;DHT22;21086;44.780;17.194;2022-08-11T09:05:02;24.00;99.90
34877;DHT22;21086;44.780;17.194;2022-08-11T09:07:30;24.10;99.90
34877;DHT22;21086;44.780;17.194;2022-08-11T09:10:07;24.30;99.90
34877;DHT22;21086;44.780;17.194;2022-08-11T09:12:35;24.30;99.90
34877;DHT22;21086;44.780;17.194;2022-08-11T09:15:05;24.40;99.90
34877;DHT22;21086;44.780;17.194;2022-08-11T09:17:40;24.40;99.90
34877;DHT22;21086;44.780;17.194;2022-08-11T09:20:12;24.40;99.90
34877;DHT22;21086;44.780;17.194;2022-08-11T09:22:42;24.50;99.90
34877;DHT22;21086;44.780;17.194;2022-08-11T09:25:55;24.60;99.90
34877;DHT22;21086;44.780;17.194;2022-08-11T09:28:42;24.70;99.90
34877;DHT22;21086;44.780;17.194;2022-08-11T09:31:10;24.80;99.90
34877;DHT22;21086;44.780;17.194;2022-08-11T09:33:40;24.90;99.90
34877;DHT22;21086;44.780;17.194;2022-08-11T09:36:10;24.90;99.90
34877;DHT22;21086;44.780;17.194;2022-08-11T09:38:57;25.00;99.90
34877;DHT22;21086;44.780;17.194;2022-08-11T09:41:44;25.20;99.90
34877;DHT22;21086;44.780;17.194;2022-08-11T09:44:30;25.40;99.90
34877;DHT22;21086;44.780;17.194;2022-08-11T09:49:46;25.50;99.90
34877;DHT22;21086;44.780;17.194;2022-08-11T09:52:14;25.70;99.90
34877;DHT22;21086;44.780;17.194;2022-08-11T09:54:46;25.80;99.90
34877;DHT22;21086;44.780;17.194;2022-08-11T09:57:17;25.90;99.90
34877;DHT22;21086;44.780;17.194;2022-08-11T10:00:06;26.00;99.90
34877;DHT22;21086;44.780;17.194;2022-08-11T10:02:47;26.10;99.90
34877;DHT22;21086;44.780;17.194;2022-08-11T10:05:17;26.20;99.90
34877;DHT22;21086;44.780;17.194;2022-08-11T10:08:04;26.30;99.90
34877;DHT22;21086;44.780;17.194;2022-08-11T10:10:38;26.50;99.90
34877;DHT22;21086;44.780;17.194;2022-08-11T10:13:12;26.60;99.90
34877;DHT22;21086;44.780;17.194;2022-08-11T10:16:02;26.70;99.90
34877;DHT22;21086;44.780;17.194;2022-08-11T10:18:45;26.90;99.90
34877;DHT22;21086;44.780;17.194;2022-08-11T10:24:00;27.00;99.90
34877;DHT22;21086;44.780;17.194;2022-08-11T10:26:48;27.20;99.90
34877;DHT22;21086;44.780;17.194;2022-08-11T10:29:39;27.30;99.90
34877;DHT22;21086;44.780;17.194;2022-08-11T10:32:28;27.40;99.90
34877;DHT22;21086;44.780;17.194;2022-08-11T10:35:30;27.60;99.90
34877;DHT22;21086;44.780;17.194;2022-08-11T10:37:59;27.80;99.90
34877;DHT22;21086;44.780;17.194;2022-08-11T10:40:37;27.90;99.90
34877;DHT22;21086;44.780;17.194;2022-08-11T10:43:07;27.90;99.90
34877;DHT22;21086;44.780;17.194;2022-08-11T10:45:44;28.00;99.90
34877;DHT22;21086;44.780;17.194;2022-08-11T10:48:37;28.20;99.90
34877;DHT22;21086;44.780;17.194;2022-08-11T10:51:06;28.40;99.90
34877;DHT22;21086;44.780;17.194;2022-08-11T10:53:47;28.50;99.90
34877;DHT22;21086;44.780;17.194;2022-08-11T10:56:39;28.50;99.90
34877;DHT22;21086;44.780;17.194;2022-08-11T10:59:27;28.60;99.90
34877;DHT22;21086;44.780;17.194;2022-08-11T11:01:54;28.60;99.90
34877;DHT22;21086;44.780;17.194;2022-08-11T11:08:29;28.90;99.90
34877;DHT22;21086;44.780;17.194;2022-08-11T11:10:26;29.00;99.90
34877;DHT22;21086;44.780;17.194;2022-08-11T11:12:55;29.00;99.90
34877;DHT22;21086;44.780;17.194;2022-08-11T11:15:45;29.10;99.90
34877;DHT22;21086;44.780;17.194;2022-08-11T11:18:33;29.30;99.90
34877;DHT22;21086;44.780;17.194;2022-08-11T11:21:06;29.50;99.90
34877;DHT22;21086;44.780;17.194;2022-08-11T11:26:11;29.80;99.90
34877;DHT22;21086;44.780;17.194;2022-08-11T11:37:24;30.20;99.90
34877;DHT22;21086;44.780;17.194;2022-08-11T11:39:53;30.20;99.90
34877;DHT22;21086;44.780;17.194;2022-08-11T11:42:21;30.20;99.90
34877;DHT22;21086;44.780;17.194;2022-08-11T11:44:49;30.30;99.90
34877;DHT22;21086;44.780;17.194;2022-08-11T11:47:21;30.30;99.90
34877;DHT22;21086;44.780;17.194;2022-08-11T11:49:49;30.40;99.90
34877;DHT22;21086;44.780;17.194;2022-08-11T11:52:19;30.50;99.90
34877;DHT22;21086;44.780;17.194;2022-08-11T11:54:48;30.60;99.90
34877;DHT22;21086;44.780;17.194;2022-08-11T11:57:18;30.70;99.90
34877;DHT22;21086;44.780;17.194;2022-08-11T12:00:05;31.00;99.90
34877;DHT22;21086;44.780;17.194;2022-08-11T12:03:03;31.10;99.90
34877;DHT22;21086;44.780;17.194;2022-08-11T12:05:32;31.10;99.90
34877;DHT22;21086;44.780;17.194;2022-08-11T12:08:01;31.30;99.90
34877;DHT22;21086;44.780;17.194;2022-08-11T12:10:55;31.30;99.90
34877;DHT22;21086;44.780;17.194;2022-08-11T12:14:03;31.40;99.90
34877;DHT22;21086;44.780;17.194;2022-08-11T12:16:39;31.70;99.90
34877;DHT22;21086;44.780;17.194;2022-08-11T12:19:10;32.20;99.90
34877;DHT22;21086;44.780;17.194;2022-08-11T12:21:39;32.70;99.90
34877;DHT22;21086;44.780;17.194;2022-08-11T12:24:29;33.20;99.90
34877;DHT22;21086;44.780;17.194;2022-08-11T12:27:15;33.60;99.90
34877;DHT22;21086;44.780;17.194;2022-08-11T12:29:54;33.60;99.90
34877;DHT22;21086;44.780;17.194;2022-08-11T12:32:24;33.40;99.90
34877;DHT22;21086;44.780;17.194;2022-08-11T12:34:52;33.10;99.90
34877;DHT22;21086;44.780;17.194;2022-08-11T12:37:35;33.10;99.90
34877;DHT22;21086;44.780;17.194;2022-08-11T12:40:08;32.80;99.90
34877;DHT22;21086;44.780;17.194;2022-08-11T12:43:18;32.90;99.90
34877;DHT22;21086;44.780;17.194;2022-08-11T12:46:30;34.90;99.90
34877;DHT22;21086;44.780;17.194;2022-08-11T12:49:00;36.90;99.90
34877;DHT22;21086;44.780;17.194;2022-08-11T12:51:52;38.90;99.90
34877;DHT22;21086;44.780;17.194;2022-08-11T12:57:37;39.60;99.90
34877;DHT22;21086;44.780;17.194;2022-08-11T13:00:24;40.80;99.90
34877;DHT22;21086;44.780;17.194;2022-08-11T13:03:11;42.30;99.90
34877;DHT22;21086;44.780;17.194;2022-08-11T13:06:00;43.40;99.90
34877;DHT22;21086;44.780;17.194;2022-08-11T13:08:33;44.80;99.90
34877;DHT22;21086;44.780;17.194;2022-08-11T13:11:02;45.40;99.90
34877;DHT22;21086;44.780;17.194;2022-08-11T13:13:50;45.60;99.90
34877;DHT22;21086;44.780;17.194;2022-08-11T13:16:34;45.00;99.90
34877;DHT22;21086;44.780;17.194;2022-08-11T13:19:22;45.70;99.90
34877;DHT22;21086;44.780;17.194;2022-08-11T13:21:51;45.80;99.90
34877;DHT22;21086;44.780;17.194;2022-08-11T13:24:20;46.00;99.90
34877;DHT22;21086;44.780;17.194;2022-08-11T13:26:49;46.30;99.90
34877;DHT22;21086;44.780;17.194;2022-08-11T13:29:18;46.40;99.90
34877;DHT22;21086;44.780;17.194;2022-08-11T13:31:46;46.90;99.90
34877;DHT22;21086;44.780;17.194;2022-08-11T13:34:15;47.50;99.90
34877;DHT22;21086;44.780;17.194;2022-08-11T13:36:43;48.00;99.90
34877;DHT22;21086;44.780;17.194;2022-08-11T13:39:11;47.50;99.90
34877;DHT22;21086;44.780;17.194;2022-08-11T13:41:41;46.40;99.90
34877;DHT22;21086;44.780;17.194;2022-08-11T13:44:12;45.30;99.90
34877;DHT22;21086;44.780;17.194;2022-08-11T13:46:44;45.00;99.90
34877;DHT22;21086;44.780;17.194;2022-08-11T13:49:15;44.70;99.90
34877;DHT22;21086;44.780;17.194;2022-08-11T13:51:43;44.00;99.90
34877;DHT22;21086;44.780;17.194;2022-08-11T13:54:15;44.40;99.90
34877;DHT22;21086;44.780;17.194;2022-08-11T13:56:47;44.80;99.90
34877;DHT22;21086;44.780;17.194;2022-08-11T13:59:18;44.80;99.90
34877;DHT22;21086;44.780;17.194;2022-08-11T14:02:03;45.30;99.90
34877;DHT22;21086;44.780;17.194;2022-08-11T14:05:15;45.30;99.90
34877;DHT22;21086;44.780;17.194;2022-08-11T14:07:58;45.80;99.90
34877;DHT22;21086;44.780;17.194;2022-08-11T14:10:28;47.00;99.90
34877;DHT22;21086;44.780;17.194;2022-08-11T14:13:09;47.90;99.90
34877;DHT22;21086;44.780;17.194;2022-08-11T14:16:15;48.40;99.90
34877;DHT22;21086;44.780;17.194;2022-08-11T14:18:46;48.60;99.90
34877;DHT22;21086;44.780;17.194;2022-08-11T14:21:16;48.70;99.90
34877;DHT22;21086;44.780;17.194;2022-08-11T14:24:03;49.00;99.90
34877;DHT22;21086;44.780;17.194;2022-08-11T14:26:31;48.70;99.90
34877;DHT22;21086;44.780;17.194;2022-08-11T14:29:14;48.70;99.90
34877;DHT22;21086;44.780;17.194;2022-08-11T14:31:53;48.70;99.90
34877;DHT22;21086;44.780;17.194;2022-08-11T14:34:23;48.50;99.90
34877;DHT22;21086;44.780;17.194;2022-08-11T14:36:52;48.30;99.90
34877;DHT22;21086;44.780;17.194;2022-08-11T14:39:27;48.70;99.90
34877;DHT22;21086;44.780;17.194;2022-08-11T14:42:01;48.40;99.90
34877;DHT22;21086;44.780;17.194;2022-08-11T14:44:58;48.00;99.90
34877;DHT22;21086;44.780;17.194;2022-08-11T14:47:51;48.00;99.90
34877;DHT22;21086;44.780;17.194;2022-08-11T14:50:21;47.70;99.90
34877;DHT22;21086;44.780;17.194;2022-08-11T14:52:52;46.80;99.90
34877;DHT22;21086;44.780;17.194;2022-08-11T14:55:23;46.50;99.90
34877;DHT22;21086;44.780;17.194;2022-08-11T14:58:10;45.00;99.90
34877;DHT22;21086;44.780;17.194;2022-08-11T15:00:40;43.00;99.90
34877;DHT22;21086;44.780;17.194;2022-08-11T15:03:10;41.60;99.90
34877;DHT22;21086;44.780;17.194;2022-08-11T15:05:48;40.60;99.90
34877;DHT22;21086;44.780;17.194;2022-08-11T15:08:31;40.10;99.90
34877;DHT22;21086;44.780;17.194;2022-08-11T15:11:19;41.00;99.90
34877;DHT22;21086;44.780;17.194;2022-08-11T15:14:07;42.50;99.90
34877;DHT22;21086;44.780;17.194;2022-08-11T15:16:40;43.20;99.90
34877;DHT22;21086;44.780;17.194;2022-08-11T15:19:28;44.30;99.90
34877;DHT22;21086;44.780;17.194;2022-08-11T15:22:08;44.80;99.90
34877;DHT22;21086;44.780;17.194;2022-08-11T15:24:57;44.70;99.90
34877;DHT22;21086;44.780;17.194;2022-08-11T15:27:24;43.90;99.90
34877;DHT22;21086;44.780;17.194;2022-08-11T15:30:12;43.90;99.90
34877;DHT22;21086;44.780;17.194;2022-08-11T15:33:05;44.00;99.90
34877;DHT22;21086;44.780;17.194;2022-08-11T15:35:52;43.50;99.90
34877;DHT22;21086;44.780;17.194;2022-08-11T15:38:45;42.80;99.90
34877;DHT22;21086;44.780;17.194;2022-08-11T15:41:14;42.40;99.90
34877;DHT22;21086;44.780;17.194;2022-08-11T15:44:04;42.10;99.90
34877;DHT22;21086;44.780;17.194;2022-08-11T15:47:11;42.70;99.90
34877;DHT22;21086;44.780;17.194;2022-08-11T15:49:40;43.30;99.90
34877;DHT22;21086;44.780;17.194;2022-08-11T15:52:32;43.70;99.90
34877;DHT22;21086;44.780;17.194;2022-08-11T15:55:01;44.10;99.90
34877;DHT22;21086;44.780;17.194;2022-08-11T15:57:35;44.00;99.90
34877;DHT22;21086;44.780;17.194;2022-08-11T16:00:22;43.60;99.90
34877;DHT22;21086;44.780;17.194;2022-08-11T16:03:08;44.30;99.90
34877;DHT22;21086;44.780;17.194;2022-08-11T16:06:15;44.30;99.90
34877;DHT22;21086;44.780;17.194;2022-08-11T16:08:43;43.90;99.90
34877;DHT22;21086;44.780;17.194;2022-08-11T16:11:12;43.90;99.90
34877;DHT22;21086;44.780;17.194;2022-08-11T16:13:39;43.80;99.90
34877;DHT22;21086;44.780;17.194;2022-08-11T16:16:07;43.50;99.90
34877;DHT22;21086;44.780;17.194;2022-08-11T16:18:45;43.70;99.90
34877;DHT22;21086;44.780;17.194;2022-08-11T16:21:21;43.40;99.90
34877;DHT22;21086;44.780;17.194;2022-08-11T16:24:10;43.40;99.90
34877;DHT22;21086;44.780;17.194;2022-08-11T16:26:58;43.40;99.90
34877;DHT22;21086;44.780;17.194;2022-08-11T16:29:43;43.50;99.90
34877;DHT22;21086;44.780;17.194;2022-08-11T16:32:14;43.40;99.90
34877;DHT22;21086;44.780;17.194;2022-08-11T16:34:57;43.00;99.90
34877;DHT22;21086;44.780;17.194;2022-08-11T16:37:45;42.60;99.90
34877;DHT22;21086;44.780;17.194;2022-08-11T16:40:31;42.10;99.90
34877;DHT22;21086;44.780;17.194;2022-08-11T16:43:00;41.90;99.90
34877;DHT22;21086;44.780;17.194;2022-08-11T16:45:48;41.30;99.90
34877;DHT22;21086;44.780;17.194;2022-08-11T16:48:35;39.80;99.90
34877;DHT22;21086;44.780;17.194;2022-08-11T16:51:10;39.10;99.90
34877;DHT22;21086;44.780;17.194;2022-08-11T16:53:37;38.80;99.90
34877;DHT22;21086;44.780;17.194;2022-08-11T16:56:42;38.60;99.90
34877;DHT22;21086;44.780;17.194;2022-08-11T16:59:18;38.50;99.90
34877;DHT22;21086;44.780;17.194;2022-08-11T17:02:00;37.90;99.90
34877;DHT22;21086;44.780;17.194;2022-08-11T17:04:42;37.80;99.90
34877;DHT22;21086;44.780;17.194;2022-08-11T17:07:31;37.90;99.90
34877;DHT22;21086;44.780;17.194;2022-08-11T17:10:24;37.50;99.90
34877;DHT22;21086;44.780;17.194;2022-08-11T17:13:30;36.70;99.90
34877;DHT22;21086;44.780;17.194;2022-08-11T17:16:00;36.00;99.90
34877;DHT22;21086;44.780;17.194;2022-08-11T17:18:57;35.30;99.90
34877;DHT22;21086;44.780;17.194;2022-08-11T17:21:44;34.30;99.90
34877;DHT22;21086;44.780;17.194;2022-08-11T17:24:34;33.60;99.90
34877;DHT22;21086;44.780;17.194;2022-08-11T17:27:04;32.80;99.90
34877;DHT22;21086;44.780;17.194;2022-08-11T17:29:51;32.30;99.90
34877;DHT22;21086;44.780;17.194;2022-08-11T17:32:32;31.70;99.90
34877;DHT22;21086;44.780;17.194;2022-08-11T17:35:25;31.20;99.90
34877;DHT22;21086;44.780;17.194;2022-08-11T17:40:38;30.20;99.90
34877;DHT22;21086;44.780;17.194;2022-08-11T17:43:07;29.80;99.90
34877;DHT22;21086;44.780;17.194;2022-08-11T17:45:54;29.40;99.90
34877;DHT22;21086;44.780;17.194;2022-08-11T17:48:42;29.20;99.90
34877;DHT22;21086;44.780;17.194;2022-08-11T17:51:17;28.80;99.90
34877;DHT22;21086;44.780;17.194;2022-08-11T17:54:05;28.50;99.90
34877;DHT22;21086;44.780;17.194;2022-08-11T17:56:52;28.20;99.90
34877;DHT22;21086;44.780;17.194;2022-08-11T17:59:48;28.00;99.90
34877;DHT22;21086;44.780;17.194;2022-08-11T18:05:10;27.50;99.90
34877;DHT22;21086;44.780;17.194;2022-08-11T18:07:42;27.30;99.90
34877;DHT22;21086;44.780;17.194;2022-08-11T18:10:30;27.10;99.90
34877;DHT22;21086;44.780;17.194;2022-08-11T18:13:18;27.00;99.90
34877;DHT22;21086;44.780;17.194;2022-08-11T18:16:04;26.80;99.90
34877;DHT22;21086;44.780;17.194;2022-08-11T18:18:50;26.60;99.90
34877;DHT22;21086;44.780;17.194;2022-08-11T18:21:37;26.40;99.90
34877;DHT22;21086;44.780;17.194;2022-08-11T18:24:47;26.20;99.90
34877;DHT22;21086;44.780;17.194;2022-08-11T18:27:35;25.90;99.90
34877;DHT22;21086;44.780;17.194;2022-08-11T18:30:23;25.70;99.90
34877;DHT22;21086;44.780;17.194;2022-08-11T18:33:12;25.40;99.90
34877;DHT22;21086;44.780;17.194;2022-08-11T18:36:23;25.30;99.90
34877;DHT22;21086;44.780;17.194;2022-08-11T18:39:12;25.10;99.90
34877;DHT22;21086;44.780;17.194;2022-08-11T18:42:05;24.90;99.90
34877;DHT22;21086;44.780;17.194;2022-08-11T18:44:59;24.80;99.90
34877;DHT22;21086;44.780;17.194;2022-08-11T18:47:49;24.70;99.90
34877;DHT22;21086;44.780;17.194;2022-08-11T18:50:38;24.50;99.90
34877;DHT22;21086;44.780;17.194;2022-08-11T18:53:48;24.50;99.90
34877;DHT22;21086;44.780;17.194;2022-08-11T18:56:35;24.30;99.90
34877;DHT22;21086;44.780;17.194;2022-08-11T18:59:24;24.20;99.90
34877;DHT22;21086;44.780;17.194;2022-08-11T19:02:12;24.20;99.90
34877;DHT22;21086;44.780;17.194;2022-08-11T19:05:14;24.20;99.90
34877;DHT22;21086;44.780;17.194;2022-08-11T19:08:21;24.20;99.90
34877;DHT22;21086;44.780;17.194;2022-08-11T19:11:09;24.10;99.90
34877;DHT22;21086;44.780;17.194;2022-08-11T19:13:57;24.10;99.90
34877;DHT22;21086;44.780;17.194;2022-08-11T19:16:45;24.00;99.90
34877;DHT22;21086;44.780;17.194;2022-08-11T19:19:31;23.90;99.90
34877;DHT22;21086;44.780;17.194;2022-08-11T19:22:19;23.80;99.90
34877;DHT22;21086;44.780;17.194;2022-08-11T19:25:06;23.80;99.90
34877;DHT22;21086;44.780;17.194;2022-08-11T19:27:53;23.70;99.90
34877;DHT22;21086;44.780;17.194;2022-08-11T19:30:39;23.60;99.90
34877;DHT22;21086;44.780;17.194;2022-08-11T19:33:26;23.60;99.90
34877;DHT22;21086;44.780;17.194;2022-08-11T19:36:33;23.50;99.90
34877;DHT22;21086;44.780;17.194;2022-08-11T19:39:21;23.40;99.90
34877;DHT22;21086;44.780;17.194;2022-08-11T19:42:07;23.40;99.90
34877;DHT22;21086;44.780;17.194;2022-08-11T19:44:53;23.30;99.90
34877;DHT22;21086;44.780;17.194;2022-08-11T19:47:41;23.30;99.90
34877;DHT22;21086;44.780;17.194;2022-08-11T19:50:49;23.30;99.90
34877;DHT22;21086;44.780;17.194;2022-08-11T19:53:36;23.20;99.90
34877;DHT22;21086;44.780;17.194;2022-08-11T19:56:22;23.20;99.90
34877;DHT22;21086;44.780;17.194;2022-08-11T19:59:08;23.20;99.90
34877;DHT22;21086;44.780;17.194;2022-08-11T20:01:54;23.10;99.90
34877;DHT22;21086;44.780;17.194;2022-08-11T20:04:41;23.10;99.90
34877;DHT22;21086;44.780;17.194;2022-08-11T20:07:28;22.90;99.90
34877;DHT22;21086;44.780;17.194;2022-08-11T20:10:16;22.80;99.90
34877;DHT22;21086;44.780;17.194;2022-08-11T20:13:06;22.60;99.90
34877;DHT22;21086;44.780;17.194;2022-08-11T20:15:54;22.50;99.90
34877;DHT22;21086;44.780;17.194;2022-08-11T20:18:41;22.30;99.90
34877;DHT22;21086;44.780;17.194;2022-08-11T20:21:27;22.30;99.90
34877;DHT22;21086;44.780;17.194;2022-08-11T20:24:14;22.20;99.90